Skip Navigation LinksHome page > Weather > Current weather Skip Navigation Links

Current Weather

New Tokyo International (Narita), Tokyo

For information only: do not use for flight planning or navigation.
Latest weather
Observation time Wednesday, February 22, 2017 5:00 PM JST
Local time Wednesday, February 22, 2017 5:24 PM JST
Flight conditions Visual Meteorological Conditions
Winds
Wind direction South-Southeast (160°)
Wind speed 5 mph
Visibility 6.2 mi.
Sky condition
Ceiling 16,000 ft. broken clouds
Cloud layer few clouds 2,500 ft.
Cloud layer scattered clouds 6,000 ft.
Cloud layer broken clouds 16,000 ft.
Temperature 48°F
Dewpoint 36°F
Altimeter 30.12 in.Hg
Derived measurements
Relative humidity 62%
Wind chill 46°F
Density altitude -697 ft.
Remarks
No significant changes expected in the next two hours.
METAR RJAA 220800Z 16004KT 9999 FEW025 SCT060 BKN160 09/02 Q1020 NOSIG RMK 1CU025 3SC060 7AC160 A3015

Settings

Location code

InnerDrive.Weather 4.0.6144.1 Release CLR 4.0.30319.34209
Copyright ©2015 Inner Drive Technology. All rights reserved. Portions Copyright ©1986-2015 David Braverman.

Find weather

Site navigation


Skip Navigation Links

Place info

Page info

PayPal - The safer, easier way to pay online!

Return home.

Copyright ©2017 Inner Drive Technology. Purveyors of fine, hand-crafted computer software. Page printed 2017-02-22T08:24:28 UTC.